Bergoo, West Virginia
Current Conditions -  °F | °C
As of 10:35 AM on Saturday 25 Oct 2014 (Local Time) from KW22 Reporting Station
Few Clouds Few Clouds  
Wind Chill: 54°   Ceiling: Unl
Heat Index: 54°   Visibility: 10mi
Dew Point: 43°   Wind: 9mph
Humidity: 67%   Direction: 240°WSW
Pressure: 30.02"   Gusts: NA
Location:  38.49°N, 80.3°W
Report Text: KW22 251435Z AUTO 24008KT 10SM FEW036 12/06 A3002 RMK AO2
Loading
Personal Weather Stations






























Interactive Weather Map
Tropical Storm Tracking
New forecast layout! Learn more

10-Day Weather Forecast

Advertisements
Track Severe Weather on mobile